Time;durP1;ratioP1;P1;durP2;ratioP2;P2;SDS_P1;SDS_P2;PMS_P1;PMS_P2;Temp;Humidity;BMP_temperature;BMP_pressure;BME280_temperature;BME280_humidity;BME280_pressure;Samples;Min_cycle;Max_cycle;Signal;HPM_P1;HPM_P2
2023/08/02 00:00:59;;;;;;;2.55;1.42;;;16.20;99.90;;;;;;5012108;28;20250;-59
2023/08/02 00:03:27;;;;;;;4.72;1.75;;;16.20;99.90;;;;;;5012672;28;20225;-60
2023/08/02 00:05:55;;;;;;;3.00;1.42;;;16.30;99.90;;;;;;5009799;28;20560;-60
2023/08/02 00:08:24;;;;;;;3.65;2.40;;;16.30;99.90;;;;;;4981538;28;20697;-59
2023/08/02 00:10:51;;;;;;;6.72;2.13;;;16.30;99.90;;;;;;5012868;28;20192;-59
2023/08/02 00:13:19;;;;;;;9.15;1.65;;;16.30;99.90;;;;;;5010692;28;20207;-59
2023/08/02 00:15:46;;;;;;;4.38;1.70;;;16.30;99.90;;;;;;5010161;28;20251;-63
2023/08/02 00:18:13;;;;;;;4.93;1.55;;;16.30;99.90;;;;;;4994161;28;20201;-59
2023/08/02 00:20:40;;;;;;;3.45;1.83;;;16.20;99.90;;;;;;5011142;28;20667;-60
2023/08/02 00:23:07;;;;;;;4.85;1.70;;;16.20;99.90;;;;;;5012846;28;20226;-59
2023/08/02 00:25:34;;;;;;;3.92;1.80;;;16.20;99.90;;;;;;5009783;28;20202;-59
2023/08/02 00:28:01;;;;;;;6.25;1.98;;;16.10;99.90;;;;;;5009646;28;20727;-60
2023/08/02 00:30:31;;;;;;;4.60;1.90;;;16.10;99.90;;;;;;5011597;28;20310;-59
2023/08/02 00:32:58;;;;;;;5.60;2.05;;;16.10;99.90;;;;;;5017443;28;20232;-59
2023/08/02 00:35:25;;;;;;;2.42;1.58;;;16.00;99.90;;;;;;5003093;28;20668;-59
2023/08/02 00:37:52;;;;;;;2.42;1.92;;;16.00;99.90;;;;;;5011073;28;20192;-59
2023/08/02 00:40:24;;;;;;;3.42;1.63;;;16.00;99.90;;;;;;5010375;28;20642;-59
2023/08/02 00:42:51;;;;;;;4.45;1.60;;;16.00;99.90;;;;;;5013425;28;20213;-59
2023/08/02 00:45:18;;;;;;;3.97;1.90;;;15.90;99.90;;;;;;5012211;28;20220;-59
2023/08/02 00:47:45;;;;;;;4.10;1.30;;;16.00;99.90;;;;;;4979474;28;20192;-59
2023/08/02 00:50:12;;;;;;;2.90;1.73;;;16.00;99.90;;;;;;4993583;28;20224;-59
2023/08/02 00:52:40;;;;;;;6.05;2.03;;;16.00;99.90;;;;;;5017401;28;20563;-59
2023/08/02 00:55:07;;;;;;;6.63;1.88;;;16.10;99.90;;;;;;4993550;28;20236;-59
2023/08/02 00:57:34;;;;;;;5.32;2.00;;;16.00;99.90;;;;;;4990916;28;20212;-60
2023/08/02 01:00:02;;;;;;;2.78;1.58;;;16.10;99.90;;;;;;4992549;28;20209;-60
2023/08/02 01:02:29;;;;;;;6.20;1.70;;;16.10;99.90;;;;;;5011821;28;20221;-60
2023/08/02 01:04:56;;;;;;;5.72;2.10;;;16.10;99.90;;;;;;4994742;28;20212;-60
2023/08/02 01:07:42;;;;;;;4.45;2.08;;;16.00;99.90;;;;;;4992933;28;20203;-60
2023/08/02 01:10:13;;;;;;;4.22;1.63;;;16.00;99.90;;;;;;5012768;28;22525;-60
2023/08/02 01:12:45;;;;;;;6.63;2.05;;;15.90;99.90;;;;;;4994236;28;20196;-61
2023/08/02 01:15:14;;;;;;;4.65;1.80;;;15.90;99.90;;;;;;5011260;28;21017;-59
2023/08/02 01:17:43;;;;;;;4.25;2.20;;;15.90;99.90;;;;;;4990035;28;20251;-60
2023/08/02 01:20:10;;;;;;;3.65;1.80;;;15.80;99.90;;;;;;4999125;28;20299;-60
2023/08/02 01:22:37;;;;;;;5.93;1.90;;;15.80;99.90;;;;;;4996330;28;20263;-60
2023/08/02 01:25:05;;;;;;;4.40;1.58;;;15.80;99.90;;;;;;5010879;28;20212;-60
2023/08/02 01:27:44;;;;;;;5.20;2.00;;;15.80;99.90;;;;;;5014749;28;20192;-61
2023/08/02 01:30:16;;;;;;;5.32;2.10;;;15.70;99.90;;;;;;5015157;28;20661;-60
2023/08/02 01:32:43;;;;;;;8.82;2.03;;;15.70;99.90;;;;;;5012680;28;20529;-60
2023/08/02 01:35:11;;;;;;;7.68;2.00;;;15.70;99.90;;;;;;4985125;28;20300;-60
2023/08/02 01:37:40;;;;;;;5.78;1.95;;;15.60;99.90;;;;;;5021585;28;20618;-60
2023/08/02 01:40:07;;;;;;;2.70;1.77;;;15.60;99.90;;;;;;5013718;28;20286;-60
2023/08/02 01:42:34;;;;;;;2.50;1.70;;;15.60;99.90;;;;;;5014912;28;20201;-60
2023/08/02 01:45:01;;;;;;;5.35;2.25;;;15.60;99.90;;;;;;5017698;28;20207;-64
2023/08/02 01:47:28;;;;;;;5.07;1.77;;;15.60;99.90;;;;;;5019264;28;20523;-60
2023/08/02 01:49:55;;;;;;;6.13;1.65;;;15.50;99.90;;;;;;4999868;28;20613;-60
2023/08/02 01:52:22;;;;;;;11.07;2.00;;;15.50;99.90;;;;;;4993484;28;20323;-59
2023/08/02 01:54:49;;;;;;;5.53;2.10;;;15.50;99.90;;;;;;5004870;28;20198;-60
2023/08/02 01:57:16;;;;;;;1.80;1.70;;;15.50;99.90;;;;;;4983176;28;20222;-59
2023/08/02 01:59:43;;;;;;;8.65;2.15;;;15.50;99.90;;;;;;5002035;28;20683;-60
2023/08/02 02:06:10;;;;;;;6.60;2.27;;;15.50;99.90;;;;;;4979594;28;20232;-59
2023/08/02 02:08:38;;;;;;;2.43;1.67;;;15.50;99.90;;;;;;4993999;28;20208;-61
2023/08/02 02:11:05;;;;;;;3.23;1.73;;;15.40;99.90;;;;;;4988716;28;20217;-59
2023/08/02 02:13:32;;;;;;;3.23;1.67;;;15.40;99.90;;;;;;4987799;28;20201;-60
2023/08/02 02:15:59;;;;;;;3.37;2.47;;;15.40;99.90;;;;;;5008861;28;20206;-59
2023/08/02 02:18:26;;;;;;;3.23;1.57;;;15.40;99.90;;;;;;5009804;28;20204;-60
2023/08/02 02:20:53;;;;;;;7.03;1.90;;;15.30;99.90;;;;;;4989687;28;20205;-57
2023/08/02 02:23:20;;;;;;;2.87;1.70;;;15.30;99.90;;;;;;4995365;28;20307;-57
2023/08/02 02:25:47;;;;;;;5.13;2.23;;;15.30;99.90;;;;;;4995861;28;20256;-57
2023/08/02 02:28:14;;;;;;;4.80;1.73;;;15.40;99.90;;;;;;4995403;28;20193;-58
2023/08/02 02:30:44;;;;;;;6.00;1.80;;;15.30;99.90;;;;;;4993679;28;20256;-59
2023/08/02 02:33:12;;;;;;;1.50;1.40;;;15.40;99.90;;;;;;4992962;28;20284;-59
2023/08/02 02:35:39;;;;;;;5.10;1.50;;;15.30;99.90;;;;;;4996884;28;20201;-59
2023/08/02 02:38:06;;;;;;;4.03;1.90;;;15.30;99.90;;;;;;4992839;28;20558;-59
2023/08/02 02:40:33;;;;;;;2.03;1.50;;;15.20;99.90;;;;;;4995620;28;20205;-60
2023/08/02 02:43:00;;;;;;;3.90;1.60;;;15.20;99.90;;;;;;4983053;28;20556;-60
2023/08/02 02:45:27;;;;;;;3.53;1.43;;;15.20;99.90;;;;;;5007954;28;20202;-60
2023/08/02 02:47:54;;;;;;;2.93;2.23;;;15.20;99.90;;;;;;4993588;28;20255;-60
2023/08/02 02:50:23;;;;;;;3.17;1.60;;;15.30;99.90;;;;;;4989477;28;20230;-60
2023/08/02 02:52:50;;;;;;;5.07;1.47;;;15.30;99.90;;;;;;4991684;28;20209;-61
2023/08/02 02:55:17;;;;;;;4.27;1.93;;;15.30;99.90;;;;;;4994165;28;20206;-59
2023/08/02 02:57:44;;;;;;;3.43;1.60;;;15.30;99.90;;;;;;4995740;28;20752;-59
2023/08/02 03:00:11;;;;;;;4.20;1.90;;;15.30;99.90;;;;;;4996205;28;20272;-59
2023/08/02 03:02:38;;;;;;;3.00;1.70;;;15.20;99.90;;;;;;4988407;28;20653;-59
2023/08/02 03:05:06;;;;;;;2.70;1.60;;;15.20;99.90;;;;;;4991201;28;20221;-59
2023/08/02 03:07:33;;;;;;;5.95;1.80;;;15.20;99.90;;;;;;4998056;28;20650;-59
2023/08/02 03:10:00;;;;;;;7.28;2.00;;;15.20;99.90;;;;;;4992771;28;20197;-59
2023/08/02 03:12:27;;;;;;;3.90;2.00;;;15.10;99.90;;;;;;4995692;28;20198;-59
2023/08/02 03:14:54;;;;;;;2.93;1.20;;;15.10;99.90;;;;;;4992301;28;20194;-59
2023/08/02 03:17:21;;;;;;;4.17;1.93;;;15.00;99.90;;;;;;4997208;28;20681;-59
2023/08/02 03:19:48;;;;;;;2.33;1.50;;;14.90;99.90;;;;;;4997573;28;20197;-59
2023/08/02 03:22:15;;;;;;;4.50;1.87;;;14.90;99.90;;;;;;5003655;28;20202;-59
2023/08/02 03:24:41;;;;;;;2.47;1.60;;;14.90;99.90;;;;;;4993629;28;20500;-60
2023/08/02 03:27:08;;;;;;;5.43;1.83;;;14.90;99.90;;;;;;4991538;28;20671;-59
2023/08/02 03:29:36;;;;;;;4.27;1.67;;;14.90;99.90;;;;;;4996360;28;20298;-59
2023/08/02 03:32:03;;;;;;;3.77;1.83;;;15.00;99.90;;;;;;4990072;28;20194;-59
2023/08/02 03:34:30;;;;;;;3.80;1.93;;;15.00;99.90;;;;;;4988741;28;20209;-59
2023/08/02 03:36:57;;;;;;;4.17;1.90;;;15.10;99.90;;;;;;4987919;28;20265;-59
2023/08/02 03:39:27;;;;;;;2.00;1.60;;;15.10;99.90;;;;;;4996851;28;20185;-58
2023/08/02 03:41:54;;;;;;;2.23;1.70;;;15.10;99.90;;;;;;4992168;28;20212;-60
2023/08/02 03:44:22;;;;;;;3.60;1.97;;;15.20;99.90;;;;;;4992454;28;20700;-59
2023/08/02 03:46:48;;;;;;;4.60;1.87;;;15.20;99.90;;;;;;4996413;28;20229;-58
2023/08/02 03:49:16;;;;;;;4.60;1.97;;;15.20;99.90;;;;;;5005868;28;20762;-58
2023/08/02 03:51:43;;;;;;;4.03;1.90;;;15.20;99.90;;;;;;5013769;28;20189;-58
2023/08/02 03:54:13;;;;;;;5.27;2.20;;;15.20;99.90;;;;;;5011982;28;20192;-59
2023/08/02 03:56:40;;;;;;;4.10;2.30;;;15.10;99.90;;;;;;5004131;28;20207;-61
2023/08/02 03:59:08;;;;;;;4.70;2.30;;;15.10;99.90;;;;;;5018938;28;20209;-59
2023/08/02 04:01:35;;;;;;;3.33;2.23;;;15.10;99.90;;;;;;4997665;28;20201;-59
2023/08/02 04:04:02;;;;;;;3.83;2.17;;;15.00;99.90;;;;;;4993072;28;20213;-58
2023/08/02 04:06:29;;;;;;;3.60;1.90;;;15.10;99.90;;;;;;5011449;28;20195;-60
2023/08/02 04:08:56;;;;;;;4.70;2.30;;;15.10;99.90;;;;;;5008683;28;20189;-59
2023/08/02 04:11:23;;;;;;;3.00;2.00;;;15.20;99.90;;;;;;5014521;28;20657;-61
2023/08/02 04:13:50;;;;;;;4.43;2.40;;;15.20;99.90;;;;;;4989647;28;20201;-59
2023/08/02 04:16:17;;;;;;;2.70;2.05;;;15.30;99.90;;;;;;4972146;28;20293;-59
2023/08/02 04:18:44;;;;;;;4.03;2.87;;;15.30;99.90;;;;;;5012772;28;20275;-59
2023/08/02 04:21:19;;;;;;;4.80;2.10;;;15.30;99.90;;;;;;5011935;28;20259;-59
2023/08/02 04:23:49;;;;;;;2.70;2.10;;;15.40;99.90;;;;;;5010168;28;20239;-59
2023/08/02 04:26:16;;;;;;;4.37;2.40;;;15.40;99.90;;;;;;5006504;28;20595;-59
2023/08/02 04:28:44;;;;;;;4.37;2.57;;;15.40;99.90;;;;;;5015670;28;20188;-60
2023/08/02 04:31:12;;;;;;;6.85;2.50;;;15.40;99.90;;;;;;5008417;28;20763;-59
2023/08/02 04:33:40;;;;;;;2.53;2.07;;;15.50;99.90;;;;;;5012123;28;20232;-59
2023/08/02 04:36:06;;;;;;;7.27;2.50;;;15.60;99.90;;;;;;5008995;28;20240;-60
2023/08/02 04:38:33;;;;;;;4.80;2.38;;;15.70;99.90;;;;;;5011335;28;20211;-59
2023/08/02 04:41:00;;;;;;;5.95;2.40;;;15.90;99.90;;;;;;4989939;28;20231;-58
2023/08/02 04:43:27;;;;;;;3.42;2.40;;;15.90;99.90;;;;;;5010888;28;20213;-59
2023/08/02 04:45:54;;;;;;;4.50;2.45;;;15.80;99.90;;;;;;5011176;28;20215;-59
2023/08/02 04:48:21;;;;;;;5.55;2.33;;;15.90;99.90;;;;;;4995669;28;20253;-59
2023/08/02 04:50:49;;;;;;;6.35;2.55;;;15.90;99.90;;;;;;5011342;28;20688;-58
2023/08/02 04:53:16;;;;;;;3.35;2.72;;;15.80;99.90;;;;;;5016173;28;20201;-59
2023/08/02 04:55:44;;;;;;;4.55;2.53;;;15.80;99.90;;;;;;5010285;28;20338;-59
2023/08/02 04:58:11;;;;;;;5.47;2.42;;;15.80;99.90;;;;;;5013488;28;20528;-61
2023/08/02 05:00:38;;;;;;;4.65;2.63;;;15.80;99.90;;;;;;5011151;28;20606;-58
2023/08/02 05:03:05;;;;;;;6.35;2.63;;;16.00;99.90;;;;;;5013488;28;20200;-58
2023/08/02 05:05:32;;;;;;;3.28;2.55;;;16.10;99.90;;;;;;5016696;28;20550;-59
2023/08/02 05:08:00;;;;;;;3.08;2.22;;;16.20;99.90;;;;;;4991627;28;20280;-59
2023/08/02 05:10:27;;;;;;;2.90;2.05;;;16.20;99.90;;;;;;5012611;28;20188;-59
2023/08/02 05:12:54;;;;;;;4.97;2.40;;;16.30;99.90;;;;;;4997077;28;20704;-60
2023/08/02 05:15:21;;;;;;;4.07;2.20;;;16.40;99.90;;;;;;4990959;28;20208;-59
2023/08/02 05:17:48;;;;;;;5.05;2.35;;;16.40;99.90;;;;;;5014750;28;20303;-59
2023/08/02 05:20:15;;;;;;;4.60;2.13;;;16.40;99.90;;;;;;4998292;28;20195;-59
2023/08/02 05:22:42;;;;;;;4.07;2.20;;;16.40;99.90;;;;;;5015384;28;20541;-59
2023/08/02 05:25:09;;;;;;;6.18;2.30;;;16.50;99.90;;;;;;4999360;28;20208;-60
2023/08/02 05:27:36;;;;;;;4.22;2.38;;;16.60;99.90;;;;;;4994676;28;20201;-59
2023/08/02 05:30:04;;;;;;;3.38;1.92;;;16.70;99.90;;;;;;5017006;28;20197;-59
2023/08/02 05:32:31;;;;;;;6.28;2.88;;;17.10;99.90;;;;;;5009049;28;20703;-60
2023/08/02 05:34:58;;;;;;;4.47;2.60;;;17.20;99.90;;;;;;5013998;28;20247;-59
2023/08/02 05:37:27;;;;;;;4.82;2.75;;;17.10;99.90;;;;;;5009702;28;20208;-63
2023/08/02 05:39:55;;;;;;;3.53;2.25;;;17.00;99.90;;;;;;5017073;28;20186;-60
2023/08/02 05:42:21;;;;;;;3.90;1.98;;;16.90;99.90;;;;;;4995919;28;20542;-61
2023/08/02 05:44:48;;;;;;;4.85;1.90;;;16.80;99.90;;;;;;5011066;28;20265;-60
2023/08/02 05:47:15;;;;;;;5.28;1.73;;;16.60;99.90;;;;;;4993619;28;20272;-60
2023/08/02 05:49:42;;;;;;;4.70;2.55;;;16.50;99.90;;;;;;5011449;28;20608;-60
2023/08/02 05:52:09;;;;;;;3.53;1.83;;;16.60;99.90;;;;;;5016173;28;20715;-60
2023/08/02 05:54:37;;;;;;;4.53;2.05;;;16.60;99.90;;;;;;5020529;28;20616;-60
2023/08/02 05:57:04;;;;;;;4.35;2.00;;;16.70;99.90;;;;;;4992439;28;20204;-59
2023/08/02 05:59:31;;;;;;;2.35;1.73;;;16.80;99.90;;;;;;5007654;28;20557;-60
2023/08/02 06:01:58;;;;;;;4.05;1.60;;;16.90;99.90;;;;;;5012320;28;20242;-60
2023/08/02 06:04:25;;;;;;;3.13;2.30;;;16.90;99.90;;;;;;5009108;28;20299;-59
2023/08/02 06:06:52;;;;;;;5.82;1.52;;;17.10;99.90;;;;;;5010703;28;20196;-60
2023/08/02 06:09:19;;;;;;;4.97;1.50;;;17.10;99.90;;;;;;4998790;28;20582;-61
2023/08/02 06:11:46;;;;;;;11.82;2.35;;;17.00;99.90;;;;;;5005215;28;20297;-59
2023/08/02 06:14:13;;;;;;;4.32;1.35;;;17.10;99.90;;;;;;4992304;28;20574;-59
2023/08/02 06:16:40;;;;;;;2.63;1.40;;;17.10;99.90;;;;;;4996382;28;20292;-60
2023/08/02 06:19:07;;;;;;;4.45;1.70;;;17.00;99.90;;;;;;5013750;28;20292;-59
2023/08/02 06:21:34;;;;;;;2.75;1.65;;;17.00;99.90;;;;;;4995838;28;20670;-60
2023/08/02 06:24:01;;;;;;;2.58;1.48;;;17.00;99.90;;;;;;4990439;28;20290;-58
2023/08/02 06:26:28;;;;;;;1.25;1.15;;;17.00;99.90;;;;;;5014836;28;20185;-59
2023/08/02 06:28:55;;;;;;;2.83;1.40;;;17.00;99.90;;;;;;5010204;28;20193;-59
2023/08/02 06:31:22;;;;;;;3.03;1.75;;;17.10;99.90;;;;;;4993963;28;20205;-61
2023/08/02 06:33:49;;;;;;;3.97;1.58;;;17.10;99.90;;;;;;5010515;28;20215;-59
2023/08/02 06:36:16;;;;;;;1.48;1.25;;;17.10;99.90;;;;;;5022241;28;20251;-58
2023/08/02 06:38:45;;;;;;;3.15;1.20;;;17.20;99.90;;;;;;5010091;28;20351;-58
2023/08/02 06:41:12;;;;;;;2.55;1.88;;;17.20;99.90;;;;;;5011876;28;20200;-58
2023/08/02 06:43:39;;;;;;;1.67;1.40;;;17.20;99.90;;;;;;5024009;28;20193;-59
2023/08/02 06:46:06;;;;;;;2.08;1.60;;;17.30;99.90;;;;;;5020630;28;20699;-58
2023/08/02 06:48:33;;;;;;;2.47;1.60;;;17.30;99.90;;;;;;5017162;28;20704;-58
2023/08/02 06:51:00;;;;;;;8.95;1.42;;;17.30;99.90;;;;;;5019135;28;20189;-58
2023/08/02 06:53:27;;;;;;;1.27;1.13;;;17.20;99.90;;;;;;5023319;28;20275;-59
2023/08/02 06:55:54;;;;;;;3.67;1.75;;;17.20;99.90;;;;;;5007463;28;20259;-59
2023/08/02 06:58:21;;;;;;;3.13;1.85;;;17.30;99.90;;;;;;5006361;28;20192;-58
2023/08/02 07:00:48;;;;;;;3.30;1.60;;;17.40;99.90;;;;;;4990302;28;20201;-59
2023/08/02 07:03:15;;;;;;;2.15;1.65;;;17.30;99.90;;;;;;5018010;28;20217;-60
2023/08/02 07:05:42;;;;;;;4.70;1.90;;;17.20;99.90;;;;;;5018085;28;20311;-60
2023/08/02 07:08:09;;;;;;;2.50;1.70;;;16.90;99.90;;;;;;5017374;28;20191;-60
2023/08/02 07:10:36;;;;;;;6.05;1.63;;;16.60;99.90;;;;;;5013889;28;20699;-60
2023/08/02 07:13:03;;;;;;;5.05;1.80;;;16.40;99.90;;;;;;5016826;28;20189;-60
2023/08/02 07:15:30;;;;;;;2.63;2.10;;;16.30;99.90;;;;;;5006825;28;20657;-60
2023/08/02 07:17:57;;;;;;;10.32;2.45;;;16.30;99.90;;;;;;5014695;28;20629;-60
2023/08/02 07:20:24;;;;;;;4.10;2.35;;;16.30;99.90;;;;;;4999267;28;20564;-60
2023/08/02 07:22:51;;;;;;;4.13;1.98;;;16.20;99.90;;;;;;5016170;28;20228;-59
2023/08/02 07:25:18;;;;;;;4.70;2.40;;;16.10;99.90;;;;;;5011710;28;20211;-60
2023/08/02 07:27:45;;;;;;;4.27;2.20;;;16.10;99.90;;;;;;4996978;28;20193;-60
2023/08/02 07:30:11;;;;;;;5.13;2.70;;;16.10;99.90;;;;;;5011050;28;20243;-59
2023/08/02 07:32:39;;;;;;;6.50;2.78;;;16.20;99.90;;;;;;5015557;28;20189;-61
2023/08/02 07:35:06;;;;;;;3.03;2.20;;;16.20;99.90;;;;;;5001125;28;20196;-61
2023/08/02 07:37:33;;;;;;;7.05;2.60;;;16.20;1.00;;;;;;5012064;28;20200;-61
2023/08/02 07:40:00;;;;;;;3.58;2.50;;;16.30;1.00;;;;;;5013957;28;20188;-61
2023/08/02 07:42:27;;;;;;;5.68;2.42;;;16.10;1.00;;;;;;5011551;28;20707;-61
2023/08/02 07:45:08;;;;;;;3.38;2.35;;;16.20;1.00;;;;;;4996126;28;20249;-61
2023/08/02 07:47:37;;;;;;;6.88;2.50;;;16.20;1.00;;;;;;5005573;28;20296;-61
2023/08/02 07:50:05;;;;;;;3.92;2.58;;;16.20;1.00;;;;;;4986158;28;20241;-61
2023/08/02 07:52:34;;;;;;;4.88;2.97;;;16.20;1.00;;;;;;4990449;28;20221;-62
2023/08/02 07:55:02;;;;;;;7.55;2.63;;;16.20;1.00;;;;;;4996404;28;20528;-61
2023/08/02 07:57:33;;;;;;;4.63;2.40;;;16.20;1.00;;;;;;4990868;28;20228;-62
2023/08/02 08:00:00;;;;;;;5.22;2.40;;;16.30;1.00;;;;;;4996590;28;20221;-61
2023/08/02 08:02:38;;;;;;;5.78;2.90;;;16.40;1.00;;;;;;4991406;28;20201;-59
2023/08/02 08:05:06;;;;;;;4.20;2.55;;;16.50;1.00;;;;;;4982132;28;21028;-60
2023/08/02 08:07:33;;;;;;;5.65;3.30;;;16.50;1.00;;;;;;4982242;28;20200;-60
2023/08/02 08:10:00;;;;;;;6.32;3.08;;;16.60;1.00;;;;;;4995714;28;20206;-60
2023/08/02 08:12:28;;;;;;;4.25;3.05;;;16.70;1.00;;;;;;4981048;28;20194;-61
2023/08/02 08:14:55;;;;;;;3.58;2.85;;;16.90;1.00;;;;;;4977047;28;20625;-60
2023/08/02 08:17:21;;;;;;;4.22;2.35;;;16.90;1.00;;;;;;4990590;28;20205;-59
2023/08/02 08:19:50;;;;;;;4.78;2.90;;;16.90;1.00;;;;;;4990240;28;20205;-59
2023/08/02 08:22:18;;;;;;;5.03;2.55;;;16.90;1.00;;;;;;4979167;28;20195;-59
2023/08/02 08:24:45;;;;;;;4.38;2.40;;;17.00;1.00;;;;;;4982363;28;20225;-59
2023/08/02 08:27:12;;;;;;;3.63;3.03;;;16.90;1.00;;;;;;4990876;28;20672;-59
2023/08/02 08:29:39;;;;;;;8.75;2.85;;;16.90;1.00;;;;;;4995838;28;20197;-59
2023/08/02 08:32:06;;;;;;;3.38;2.50;;;17.00;1.00;;;;;;4971579;28;20678;-60
2023/08/02 08:34:33;;;;;;;2.75;2.17;;;16.90;1.00;;;;;;4976391;28;20728;-59
2023/08/02 08:37:00;;;;;;;4.50;2.70;;;16.80;1.00;;;;;;4976122;28;20654;-59
2023/08/02 08:39:27;;;;;;;4.05;2.80;;;16.90;1.00;;;;;;4954423;28;20190;-60
2023/08/02 08:41:56;;;;;;;5.05;2.28;;;17.00;1.00;;;;;;4974733;28;20275;-58
2023/08/02 08:44:23;;;;;;;3.72;2.38;;;17.10;1.00;;;;;;4976779;28;20905;-58
2023/08/02 08:46:52;;;;;;;4.32;2.17;;;17.20;1.00;;;;;;5006073;28;20236;-60
2023/08/02 08:49:19;;;;;;;2.75;2.13;;;17.20;1.00;;;;;;4999323;28;20225;-59
2023/08/02 08:51:50;;;;;;;2.40;2.15;;;17.20;1.00;;;;;;4999056;28;20272;-59
2023/08/02 08:54:23;;;;;;;3.40;2.40;;;17.20;1.00;;;;;;4994016;28;20186;-60
2023/08/02 08:56:50;;;;;;;4.18;2.03;;;17.30;1.00;;;;;;4993644;28;20885;-59
2023/08/02 08:59:18;;;;;;;5.10;2.30;;;17.30;1.00;;;;;;4994337;28;20222;-59
2023/08/02 09:01:46;;;;;;;3.83;2.47;;;17.40;1.00;;;;;;4994064;28;20582;-61
2023/08/02 09:04:13;;;;;;;2.67;1.77;;;17.50;99.90;;;;;;4987662;28;20235;-59
2023/08/02 09:06:41;;;;;;;1.85;1.60;;;17.60;99.90;;;;;;5001469;28;20189;-59
2023/08/02 09:09:08;;;;;;;4.38;1.85;;;17.70;99.90;;;;;;4990661;28;20208;-58
2023/08/02 09:11:35;;;;;;;2.22;1.33;;;17.60;99.90;;;;;;5009983;28;20281;-58
2023/08/02 09:14:16;;;;;;;2.22;1.30;;;17.70;99.90;;;;;;4989754;28;20224;-59
2023/08/02 09:17:03;;;;;;;2.35;1.40;;;17.90;99.90;;;;;;4994315;28;20657;-61
2023/08/02 09:19:32;;;;;;;1.65;1.25;;;17.60;99.90;;;;;;4979317;28;20876;-58
2023/08/02 09:22:15;;;;;;;2.17;1.27;;;17.40;99.90;;;;;;4987731;28;20201;-59
2023/08/02 09:24:44;;;;;;;1.50;1.05;;;17.40;99.90;;;;;;5001488;28;20231;-59
2023/08/02 09:27:14;;;;;;;1.67;1.08;;;17.30;99.90;;;;;;4986315;28;20199;-58
2023/08/02 09:29:52;;;;;;;1.13;1.08;;;17.20;1.00;;;;;;4987743;28;20205;-59
2023/08/02 09:32:21;;;;;;;1.17;1.02;;;17.20;1.00;;;;;;4989297;28;20202;-59
2023/08/02 09:34:53;;;;;;;0.93;0.70;;;17.10;1.00;;;;;;4990017;28;20220;-59
2023/08/02 09:37:35;;;;;;;1.15;1.05;;;17.10;1.00;;;;;;5002436;28;20197;-59
2023/08/02 09:40:04;;;;;;;0.82;0.82;;;17.20;1.00;;;;;;4991842;28;20569;-59
2023/08/02 09:42:31;;;;;;;1.38;0.90;;;17.30;1.00;;;;;;4988750;28;20201;-58
2023/08/02 09:45:01;;;;;;;1.08;0.98;;;17.30;1.00;;;;;;4990758;28;20209;-59
2023/08/02 09:47:28;;;;;;;1.10;1.00;;;17.30;1.00;;;;;;4992939;28;20193;-61
2023/08/02 09:50:10;;;;;;;1.00;0.90;;;17.40;1.00;;;;;;5005980;28;20236;-59
2023/08/02 09:52:40;;;;;;;0.90;0.80;;;17.50;1.00;;;;;;5012033;28;20207;-59
2023/08/02 09:55:08;;;;;;;1.65;1.00;;;17.50;1.00;;;;;;5007659;28;20196;-59
2023/08/02 09:57:35;;;;;;;0.77;0.77;;;17.60;1.00;;;;;;5006927;28;20645;-58
2023/08/02 10:00:07;;;;;;;0.80;0.80;;;17.70;1.00;;;;;;5011814;28;20236;-59
2023/08/02 10:02:38;;;;;;;0.90;0.90;;;17.80;99.90;;;;;;5011578;28;20271;-59
2023/08/02 10:05:07;;;;;;;0.95;0.82;;;17.80;99.90;;;;;;4986789;28;20239;-60
2023/08/02 10:07:50;;;;;;;0.85;0.75;;;18.00;99.90;;;;;;5004865;28;20185;-59
2023/08/02 10:10:28;;;;;;;0.90;0.90;;;18.00;99.90;;;;;;4990178;28;20208;-59
2023/08/02 10:13:03;;;;;;;0.95;0.80;;;18.40;99.90;;;;;;5002753;28;20561;-60
2023/08/02 10:15:31;;;;;;;0.80;0.70;;;18.80;99.90;;;;;;4988970;28;20515;-60
2023/08/02 10:17:59;;;;;;;0.82;0.70;;;19.10;99.90;;;;;;4999085;28;20220;-64
2023/08/02 10:20:26;;;;;;;0.52;0.52;;;19.20;99.90;;;;;;5005797;28;20204;-66
2023/08/02 10:22:54;;;;;;;1.73;0.80;;;19.20;99.90;;;;;;5007942;28;20557;-61
2023/08/02 10:25:23;;;;;;;0.70;0.70;;;19.30;99.90;;;;;;5007767;28;20226;-62
2023/08/02 10:27:50;;;;;;;1.13;0.70;;;19.80;99.90;;;;;;5005245;28;20228;-61
2023/08/02 10:30:17;;;;;;;0.50;0.50;;;20.10;99.90;;;;;;5006174;28;20676;-61
2023/08/02 10:32:58;;;;;;;0.85;0.85;;;20.50;99.90;;;;;;4984953;28;20205;-60
2023/08/02 10:36:05;;;;;;;0.47;0.47;;;20.90;99.90;;;;;;5000664;28;20323;-61
2023/08/02 10:38:47;;;;;;;0.73;0.70;;;20.60;99.90;;;;;;4995818;28;20211;-61
2023/08/02 10:41:27;;;;;;;0.50;0.50;;;20.10;99.90;;;;;;4989773;28;20692;-61
2023/08/02 10:43:54;;;;;;;0.52;0.52;;;20.10;99.90;;;;;;5010318;28;20199;-61
2023/08/02 10:46:27;;;;;;;0.65;0.60;;;20.10;99.90;;;;;;4991455;28;20216;-61
2023/08/02 10:49:09;;;;;;;0.40;0.40;;;20.10;99.90;;;;;;5007338;28;20236;-60
2023/08/02 10:51:37;;;;;;;0.57;0.52;;;20.00;99.90;;;;;;4987579;28;20704;-61
2023/08/02 10:54:25;;;;;;;0.60;0.60;;;20.00;99.90;;;;;;4992485;28;20201;-61
2023/08/02 10:56:53;;;;;;;0.50;0.45;;;20.10;99.90;;;;;;5006460;28;20205;-61
2023/08/02 10:59:23;;;;;;;0.57;0.50;;;20.20;99.90;;;;;;4979244;28;20201;-62
2023/08/02 11:02:01;;;;;;;0.52;0.47;;;20.30;99.90;;;;;;4991225;28;20492;-61
2023/08/02 11:04:30;;;;;;;0.40;0.40;;;20.30;99.90;;;;;;5010429;28;20279;-62
2023/08/02 11:07:14;;;;;;;0.60;0.60;;;20.10;99.90;;;;;;4991535;28;20579;-61
2023/08/02 11:09:41;;;;;;;0.70;0.70;;;20.10;99.90;;;;;;5011541;28;20641;-61
2023/08/02 11:12:13;;;;;;;1.05;0.50;;;20.10;99.90;;;;;;5010200;28;20185;-61
2023/08/02 11:14:43;;;;;;;0.43;0.43;;;20.10;99.90;;;;;;5003535;28;20204;-61
2023/08/02 11:17:11;;;;;;;0.50;0.50;;;20.00;99.90;;;;;;5011406;28;20730;-60
2023/08/02 11:19:46;;;;;;;0.60;0.60;;;19.90;99.90;;;;;;5006974;28;20346;-60
2023/08/02 11:22:39;;;;;;;0.50;0.50;;;20.00;99.90;;;;;;5009585;28;20197;-61
2023/08/02 11:25:06;;;;;;;0.52;0.52;;;20.10;99.90;;;;;;4991792;28;20759;-61
2023/08/02 11:27:34;;;;;;;1.42;0.93;;;20.20;99.90;;;;;;5006041;28;20276;-61
2023/08/02 11:30:07;;;;;;;1.35;0.70;;;20.10;99.90;;;;;;5002410;28;20193;-60
2023/08/02 11:32:42;;;;;;;0.50;0.50;;;20.10;99.90;;;;;;4986587;28;20737;-61
2023/08/02 11:35:13;;;;;;;1.55;0.50;;;20.00;99.90;;;;;;4985119;28;20196;-61
2023/08/02 11:37:40;;;;;;;0.40;0.40;;;19.90;99.90;;;;;;4987119;28;20193;-61
2023/08/02 11:40:09;;;;;;;0.30;0.30;;;19.60;99.90;;;;;;5009037;28;20201;-61
2023/08/02 11:42:53;;;;;;;0.40;0.40;;;20.20;99.90;;;;;;5006042;28;20667;-61
2023/08/02 11:45:31;;;;;;;0.40;0.40;;;20.80;99.90;;;;;;4989481;28;20229;-61
2023/08/02 11:47:59;;;;;;;0.22;0.22;;;22.00;99.90;;;;;;4988038;28;20723;-62
2023/08/02 11:50:31;;;;;;;0.85;0.60;;;23.30;99.90;;;;;;5009583;28;20458;-61
2023/08/02 11:53:08;;;;;;;2.90;0.50;;;24.20;99.90;;;;;;5009365;28;20181;-61
2023/08/02 11:55:37;;;;;;;0.50;0.50;;;23.60;99.90;;;;;;5005712;28;20282;-62
2023/08/02 11:58:05;;;;;;;0.47;0.47;;;23.10;99.90;;;;;;5007848;28;20286;-61
2023/08/02 12:00:33;;;;;;;0.43;0.43;;;23.60;99.90;;;;;;5008989;28;20560;-61
2023/08/02 12:03:08;;;;;;;0.50;0.50;;;23.30;99.90;;;;;;4989364;28;20640;-61
2023/08/02 12:05:36;;;;;;;0.40;0.40;;;23.20;99.90;;;;;;5008431;28;20657;-61
2023/08/02 12:08:14;;;;;;;0.77;0.70;;;23.20;99.90;;;;;;5006353;28;20204;-61
2023/08/02 12:10:43;;;;;;;0.47;0.47;;;23.30;99.90;;;;;;5008575;28;20552;-61
2023/08/02 12:13:15;;;;;;;0.60;0.60;;;23.10;99.90;;;;;;5003760;28;20231;-69
2023/08/02 12:16:02;;;;;;;0.50;0.50;;;23.70;99.90;;;;;;5006042;28;20186;-61
2023/08/02 12:18:29;;;;;;;0.40;0.40;;;23.10;99.90;;;;;;5006212;28;20233;-61
2023/08/02 12:20:56;;;;;;;0.60;0.60;;;22.80;99.90;;;;;;5002626;28;20478;-61
2023/08/02 12:23:34;;;;;;;0.55;0.55;;;23.00;99.90;;;;;;5005787;28;20489;-61
2023/08/02 12:26:01;;;;;;;0.95;0.40;;;22.90;99.90;;;;;;5007110;28;20587;-60
2023/08/02 12:28:44;;;;;;;0.50;0.50;;;23.50;99.90;;;;;;4987401;28;20200;-60
2023/08/02 12:31:13;;;;;;;1.55;0.57;;;22.90;99.90;;;;;;5004014;28;20783;-60
2023/08/02 12:33:40;;;;;;;0.50;0.50;;;23.00;99.90;;;;;;4986727;28;20601;-60
2023/08/02 12:36:08;;;;;;;0.85;0.60;;;23.40;99.90;;;;;;5003893;28;20208;-60
2023/08/02 12:38:35;;;;;;;0.63;0.60;;;24.10;99.90;;;;;;5001525;28;20207;-61
2023/08/02 12:41:03;;;;;;;5.95;0.75;;;24.00;99.90;;;;;;5002458;28;20205;-61
2023/08/02 12:43:30;;;;;;;1.10;0.73;;;23.60;99.90;;;;;;4998690;28;20200;-61
2023/08/02 12:45:57;;;;;;;0.63;0.63;;;23.30;99.90;;;;;;5002456;28;20525;-61
2023/08/02 12:48:24;;;;;;;0.55;0.55;;;23.40;99.90;;;;;;5003338;28;20692;-61
2023/08/02 12:50:51;;;;;;;0.50;0.50;;;23.40;99.90;;;;;;5001208;28;20284;-60
2023/08/02 12:53:18;;;;;;;0.60;0.45;;;23.60;99.90;;;;;;4977109;28;20665;-60
2023/08/02 12:55:46;;;;;;;0.60;0.60;;;22.80;99.90;;;;;;4997882;28;20200;-60
2023/08/02 12:58:14;;;;;;;0.50;0.50;;;22.90;99.90;;;;;;4990405;28;20201;-60
2023/08/02 13:00:42;;;;;;;0.50;0.50;;;22.40;99.90;;;;;;5002685;28;20242;-60